createdAt,value
2022-12-20T00:02:26.913Z,-0.50
2022-12-20T00:06:29.241Z,-0.50
2022-12-20T00:10:30.997Z,-0.60
2022-12-20T00:14:32.724Z,-1.00
2022-12-20T00:18:34.908Z,-1.10
2022-12-20T00:22:36.698Z,-0.90
2022-12-20T00:26:38.579Z,-0.70
2022-12-20T00:30:40.347Z,-0.60
2022-12-20T00:34:42.160Z,-0.60
2022-12-20T00:38:48.849Z,-0.60
2022-12-20T00:42:50.807Z,-0.60
2022-12-20T00:46:52.760Z,-0.50
2022-12-20T00:51:03.440Z,-0.60
2022-12-20T00:55:05.482Z,-0.60
2022-12-20T00:59:07.522Z,-0.60
2022-12-20T01:03:09.964Z,-0.50
2022-12-20T01:07:11.938Z,-0.50
2022-12-20T01:11:17.172Z,-0.60
2022-12-20T01:15:19.761Z,-0.70
2022-12-20T01:19:21.559Z,-0.70
2022-12-20T01:23:23.325Z,-0.60
2022-12-20T01:27:25.321Z,-0.60
2022-12-20T01:31:28.826Z,-0.70
2022-12-20T01:35:30.561Z,-0.50
2022-12-20T01:39:32.430Z,-0.50
2022-12-20T01:43:46.453Z,-0.50
2022-12-20T01:47:48.518Z,-0.50
2022-12-20T01:51:54.864Z,-0.40
2022-12-20T01:55:59.862Z,-0.50
2022-12-20T02:00:02.119Z,-0.40
2022-12-20T02:04:15.281Z,-0.60
2022-12-20T02:08:20.331Z,-0.50
2022-12-20T02:12:25.359Z,-0.60
2022-12-20T02:16:30.096Z,-0.40
2022-12-20T02:21:05.655Z,-0.50
2022-12-20T02:25:27.622Z,-0.40
2022-12-20T02:30:06.897Z,-0.60
2022-12-20T02:34:10.719Z,-0.50
2022-12-20T02:38:36.970Z,-0.60
2022-12-20T02:42:38.984Z,-0.50
2022-12-20T02:46:42.057Z,-0.40
2022-12-20T02:50:47.604Z,-0.50
2022-12-20T02:54:49.399Z,-0.40
2022-12-20T02:59:09.098Z,-0.40
2022-12-20T03:03:23.519Z,-0.40
2022-12-20T03:07:25.370Z,-0.50
2022-12-20T03:11:27.454Z,-0.50
2022-12-20T03:15:29.214Z,-0.50
2022-12-20T03:19:33.091Z,-0.60
2022-12-20T03:23:34.912Z,-0.70
2022-12-20T03:27:36.709Z,-0.70
2022-12-20T03:31:38.776Z,-0.70
2022-12-20T03:35:40.760Z,-0.80
2022-12-20T03:39:44.040Z,-0.90
2022-12-20T03:43:45.967Z,-0.90
2022-12-20T03:47:47.747Z,-1.00
2022-12-20T03:51:49.567Z,-1.30
2022-12-20T03:55:51.487Z,-1.10
2022-12-20T03:59:54.281Z,-1.10
2022-12-20T04:03:56.657Z,-1.30
2022-12-20T04:07:58.570Z,-1.50
2022-12-20T04:12:01.563Z,-1.50
2022-12-20T04:16:05.192Z,-1.40
2022-12-20T04:20:19.463Z,-1.50
2022-12-20T04:24:26.913Z,-1.50
2022-12-20T04:28:58.005Z,-1.60
2022-12-20T04:32:59.853Z,-1.40
2022-12-20T04:37:02.349Z,-1.40
2022-12-20T04:41:24.595Z,-1.40
2022-12-20T04:45:31.995Z,-1.50
2022-12-20T04:49:33.947Z,-1.70
2022-12-20T04:53:50.849Z,-1.60
2022-12-20T04:58:07.862Z,-1.50
2022-12-20T05:02:12.366Z,-1.60
2022-12-20T05:06:25.965Z,-1.50
2022-12-20T05:10:28.093Z,-1.40
2022-12-20T05:14:32.833Z,-1.40
2022-12-20T05:18:34.950Z,-1.40
2022-12-20T05:22:59.830Z,-1.40
2022-12-20T05:27:01.730Z,-1.50
2022-12-20T05:31:04.278Z,-1.50
2022-12-20T05:35:09.307Z,-1.40
2022-12-20T05:39:12.305Z,-1.50
2022-12-20T05:43:17.047Z,-1.50
2022-12-20T05:47:20.761Z,-1.60
2022-12-20T05:51:25.403Z,-1.50
2022-12-20T05:55:37.260Z,-1.60
2022-12-20T05:59:39.641Z,-1.40
2022-12-20T06:03:46.851Z,-1.40
2022-12-20T06:07:51.369Z,-1.40
2022-12-20T06:11:54.271Z,-1.50
2022-12-20T06:15:57.216Z,-1.40
2022-12-20T06:19:59.030Z,-1.40
2022-12-20T06:24:01.580Z,-1.50
2022-12-20T06:28:04.386Z,-1.50
2022-12-20T06:32:06.804Z,-1.50
2022-12-20T06:36:08.869Z,-1.50
2022-12-20T06:40:13.669Z,-1.50
2022-12-20T06:44:15.751Z,-1.50
2022-12-20T06:48:17.943Z,-1.50
2022-12-20T06:52:19.801Z,-1.40
2022-12-20T06:56:24.470Z,-1.40
2022-12-20T07:00:27.426Z,-1.40
2022-12-20T07:04:29.271Z,-1.40
2022-12-20T07:08:31.060Z,-1.40
2022-12-20T07:12:33.546Z,-1.40
2022-12-20T07:16:36.273Z,-1.50
2022-12-20T07:20:39.688Z,-1.40
2022-12-20T07:24:41.475Z,-1.50
2022-12-20T07:28:43.855Z,-1.60
2022-12-20T07:32:46.660Z,-1.90
2022-12-20T07:36:48.579Z,-1.80
2022-12-20T07:40:50.540Z,-1.50
2022-12-20T07:44:52.309Z,-1.30
2022-12-20T07:48:54.199Z,-1.30
2022-12-20T07:52:56.377Z,-1.00
2022-12-20T07:57:04.039Z,-1.10
2022-12-20T08:01:06.427Z,-1.00
2022-12-20T08:05:09.829Z,-1.00
2022-12-20T08:09:13.442Z,-0.90
2022-12-20T08:13:15.701Z,-0.90
2022-12-20T08:17:17.573Z,-0.80
2022-12-20T08:21:19.350Z,-0.70
2022-12-20T08:25:21.636Z,-0.60
2022-12-20T08:29:23.410Z,-0.60
2022-12-20T08:33:25.180Z,-0.50
2022-12-20T08:37:26.931Z,-0.40
2022-12-20T08:41:28.749Z,-0.40
2022-12-20T08:45:30.531Z,-0.40
2022-12-20T08:49:32.492Z,-0.20
2022-12-20T08:53:35.060Z,-0.20
2022-12-20T08:57:36.819Z,-0.20
2022-12-20T09:01:38.798Z,-0.10
2022-12-20T09:05:45.503Z,-0.10
2022-12-20T09:09:47.618Z,0.00
2022-12-20T09:13:52.719Z,0.10
2022-12-20T09:17:55.527Z,0.10
2022-12-20T09:21:57.290Z,0.20
2022-12-20T09:26:13.382Z,0.40
2022-12-20T09:30:15.360Z,0.40
2022-12-20T09:34:17.153Z,0.50
2022-12-20T09:38:18.998Z,0.60
2022-12-20T09:42:24.452Z,0.60
2022-12-20T09:46:27.168Z,0.40
2022-12-20T09:50:45.039Z,0.30
2022-12-20T09:54:52.890Z,0.70
2022-12-20T09:59:02.546Z,0.70
2022-12-20T10:03:10.408Z,0.70
2022-12-20T10:07:18.428Z,0.80
2022-12-20T10:11:52.553Z,0.80
2022-12-20T10:16:28.709Z,0.80
2022-12-20T10:21:11.073Z,1.00
2022-12-20T10:25:24.742Z,1.00
2022-12-20T10:29:26.786Z,1.20
2022-12-20T10:33:31.282Z,1.20
2022-12-20T10:37:33.197Z,1.20
2022-12-20T10:41:41.038Z,1.30
2022-12-20T10:45:43.744Z,1.40
2022-12-20T10:49:45.530Z,1.50
2022-12-20T10:53:56.787Z,1.60
2022-12-20T10:58:14.579Z,1.60
2022-12-20T11:02:38.809Z,1.70
2022-12-20T11:06:45.468Z,1.80
2022-12-20T11:10:47.702Z,1.90
2022-12-20T11:14:49.678Z,1.60
2022-12-20T11:19:08.642Z,1.70
2022-12-20T11:23:16.182Z,1.80
2022-12-20T11:27:37.800Z,1.50
2022-12-20T11:31:57.034Z,1.20
2022-12-20T11:36:06.282Z,1.30
2022-12-20T11:40:23.205Z,1.60
2022-12-20T11:44:51.501Z,1.80
2022-12-20T11:49:34.484Z,1.80
2022-12-20T11:53:45.586Z,1.90
2022-12-20T11:58:17.581Z,2.00
2022-12-20T12:02:38.475Z,2.00
2022-12-20T12:06:53.441Z,2.00
2022-12-20T12:11:04.214Z,2.20
2022-12-20T12:15:16.987Z,2.10
2022-12-20T12:19:19.070Z,2.30
2022-12-20T12:23:42.596Z,2.30
2022-12-20T12:27:44.790Z,2.30
2022-12-20T12:32:04.195Z,2.40
2022-12-20T12:36:27.080Z,2.30
2022-12-20T12:41:23.386Z,2.40
2022-12-20T12:45:35.036Z,2.40
2022-12-20T12:49:37.953Z,2.30
2022-12-20T12:53:44.037Z,2.40
2022-12-20T12:57:59.195Z,2.20
2022-12-20T13:02:04.353Z,2.30
2022-12-20T13:06:28.223Z,2.40
2022-12-20T13:10:31.609Z,2.50
2022-12-20T13:14:36.449Z,2.50
2022-12-20T13:18:38.536Z,2.60
2022-12-20T13:22:40.311Z,2.50
2022-12-20T13:26:50.769Z,2.40
2022-12-20T13:31:01.938Z,2.40
2022-12-20T13:35:29.556Z,2.50
2022-12-20T13:39:35.589Z,2.40
2022-12-20T13:43:44.164Z,2.50
2022-12-20T13:47:52.669Z,2.60
2022-12-20T13:52:12.085Z,2.60
2022-12-20T13:56:32.361Z,2.70
2022-12-20T14:00:34.628Z,2.60
2022-12-20T14:04:46.052Z,2.70
2022-12-20T14:08:50.521Z,2.70
2022-12-20T14:12:53.720Z,2.80
2022-12-20T14:16:55.667Z,2.80
2022-12-20T14:21:05.282Z,2.80
2022-12-20T14:25:08.839Z,2.70
2022-12-20T14:29:12.401Z,2.70
2022-12-20T14:33:30.764Z,2.70
2022-12-20T14:37:36.526Z,2.60
2022-12-20T14:41:43.543Z,2.60
2022-12-20T14:45:45.434Z,2.50
2022-12-20T14:49:52.471Z,2.50
2022-12-20T14:53:59.668Z,2.50
2022-12-20T14:58:02.015Z,2.50
2022-12-20T15:02:33.266Z,2.50
2022-12-20T15:06:41.165Z,2.50
2022-12-20T15:10:57.277Z,2.40
2022-12-20T15:15:17.774Z,2.40
2022-12-20T15:19:20.950Z,2.30
2022-12-20T15:23:23.077Z,2.50
2022-12-20T15:27:24.821Z,2.40
2022-12-20T15:31:33.443Z,2.30
2022-12-20T15:35:35.986Z,2.20
2022-12-20T15:39:38.543Z,2.30
2022-12-20T15:43:40.412Z,2.20
2022-12-20T15:47:42.779Z,2.20
2022-12-20T15:51:46.734Z,2.10
2022-12-20T15:55:50.495Z,2.20
2022-12-20T16:00:02.363Z,2.20
2022-12-20T16:04:19.292Z,2.20
2022-12-20T16:08:21.117Z,2.20
2022-12-20T16:12:26.851Z,2.20
2022-12-20T16:16:33.969Z,2.20
2022-12-20T16:20:35.850Z,2.00
2022-12-20T16:24:37.606Z,2.10
2022-12-20T16:28:39.745Z,2.20
2022-12-20T16:32:41.721Z,2.10
2022-12-20T16:36:44.717Z,2.10
2022-12-20T16:40:46.508Z,2.10
2022-12-20T16:44:52.175Z,2.40
2022-12-20T16:48:58.646Z,2.20
2022-12-20T16:53:00.495Z,2.10
2022-12-20T16:57:02.299Z,2.20
2022-12-20T17:01:04.102Z,2.10
2022-12-20T17:05:06.385Z,2.00
2022-12-20T17:09:09.008Z,2.00
2022-12-20T17:13:11.715Z,2.00
2022-12-20T17:17:13.736Z,2.00
2022-12-20T17:26:04.737Z,2.10
2022-12-20T17:30:07.262Z,1.90
2022-12-20T17:34:30.154Z,1.60
2022-12-20T17:38:32.014Z,1.70
2022-12-20T17:42:33.825Z,1.70
2022-12-20T17:46:35.559Z,1.80
2022-12-20T17:50:38.685Z,1.90
2022-12-20T17:54:40.550Z,1.90
2022-12-20T17:58:45.594Z,2.00
2022-12-20T18:02:47.464Z,2.00
2022-12-20T18:06:49.898Z,2.00
2022-12-20T18:10:51.683Z,1.90
2022-12-20T18:14:53.588Z,1.90
2022-12-20T18:18:56.607Z,2.00
2022-12-20T18:22:58.364Z,2.10
2022-12-20T18:27:00.139Z,2.00
2022-12-20T18:31:03.897Z,2.10
2022-12-20T18:35:06.771Z,2.20
2022-12-20T18:39:11.857Z,2.10
2022-12-20T18:43:13.639Z,2.10
2022-12-20T18:47:15.453Z,2.10
2022-12-20T18:51:19.983Z,2.10
2022-12-20T18:55:21.939Z,2.10
2022-12-20T18:59:23.946Z,2.10
2022-12-20T19:03:27.132Z,2.20
2022-12-20T19:07:28.995Z,2.30
2022-12-20T19:11:30.903Z,2.20
2022-12-20T19:15:32.794Z,2.30
2022-12-20T19:19:34.634Z,2.30
2022-12-20T19:23:37.814Z,2.30
2022-12-20T19:27:40.465Z,2.30
2022-12-20T19:31:42.323Z,2.20
2022-12-20T19:35:59.755Z,2.10
2022-12-20T19:40:01.813Z,2.20
2022-12-20T19:44:04.220Z,2.20
2022-12-20T19:48:06.071Z,2.10
2022-12-20T19:52:07.974Z,2.00
2022-12-20T19:56:10.310Z,2.10
2022-12-20T20:00:12.730Z,2.10
2022-12-20T20:04:14.486Z,2.20
2022-12-20T20:08:16.715Z,2.20
2022-12-20T20:12:18.729Z,2.10
2022-12-20T20:16:22.797Z,2.10
2022-12-20T20:20:25.009Z,2.10
2022-12-20T20:24:26.787Z,2.20
2022-12-20T20:28:33.137Z,2.20
2022-12-20T20:32:36.957Z,2.20
2022-12-20T20:36:38.939Z,2.30
2022-12-20T20:40:41.091Z,2.20
2022-12-20T20:44:42.936Z,2.20
2022-12-20T20:48:45.278Z,2.20
2022-12-20T20:52:47.488Z,2.20
2022-12-20T20:56:49.422Z,2.20
2022-12-20T21:00:59.688Z,2.20
2022-12-20T21:05:59.225Z,2.20
2022-12-20T21:09:23.301Z,2.20
2022-12-20T21:13:25.063Z,2.20
2022-12-20T21:17:26.950Z,2.20
2022-12-20T21:21:28.930Z,2.20
2022-12-20T21:25:30.982Z,2.20
2022-12-20T21:29:32.861Z,2.30
2022-12-20T21:33:34.676Z,2.30
2022-12-20T21:37:36.608Z,2.40
2022-12-20T21:41:38.494Z,2.30
2022-12-20T21:45:40.225Z,2.30
2022-12-20T21:49:42.123Z,2.30
2022-12-20T21:53:46.838Z,2.30
2022-12-20T21:57:48.682Z,2.30
2022-12-20T22:01:50.766Z,2.30
2022-12-20T22:05:54.607Z,2.30
2022-12-20T22:09:56.440Z,2.30
2022-12-20T22:13:58.335Z,2.30
2022-12-20T22:18:00.194Z,2.30
2022-12-20T22:22:02.051Z,2.30
2022-12-20T22:26:05.709Z,2.20
2022-12-20T22:30:08.203Z,2.30
2022-12-20T22:34:10.276Z,2.30
2022-12-20T22:38:12.120Z,2.20
2022-12-20T22:42:13.857Z,2.20
2022-12-20T22:46:18.019Z,2.20
2022-12-20T22:50:20.142Z,2.30
2022-12-20T22:54:22.891Z,2.30
2022-12-20T22:58:24.767Z,2.20
2022-12-20T23:02:27.835Z,2.20
2022-12-20T23:06:29.754Z,2.20
2022-12-20T23:10:50.425Z,2.30
2022-12-20T23:15:10.709Z,2.20
2022-12-20T23:19:12.759Z,2.20
2022-12-20T23:23:14.629Z,2.20
2022-12-20T23:27:16.372Z,2.20
2022-12-20T23:31:18.210Z,2.10
2022-12-20T23:35:21.242Z,2.20
2022-12-20T23:39:23.059Z,2.30
2022-12-20T23:43:25.249Z,2.30
2022-12-20T23:47:27.023Z,2.30
2022-12-20T23:51:28.856Z,2.30
2022-12-20T23:55:30.606Z,2.40
2022-12-20T23:59:33.563Z,2.40
